Fernando Luis Ribas Dominicci Airport


Codes: TJIG/SIG
Name: Fernando Luis Ribas Dominicci Airport
City: San Juan
Country: Puerto Rico
Elevation: 10 ft.
Wikipedia:

Photos at Fernando Luis Ribas Dominicci Airport


   Photos courtesy of SpottingLog. You can add your own sightings and photos by signing up for a free trial today.



No photos found.

Weather at Fernando Luis Ribas Dominicci Airport


Time (UTC)DescriptionTempratureWindCloud coverageVisibilityPressureHumidity
17-Jun-2024 06:00Overcast Clouds25°C2 mph, S100%10000m1014hPa92%
17-Jun-2024 09:00Overcast Clouds25°C2 mph, S96%10000m1014hPa90%
17-Jun-2024 12:00Overcast Clouds26°C4 mph, SE96%10000m1014hPa84%
17-Jun-2024 15:00Light Rain30°C4 mph, NE100%10000m1013hPa68%
17-Jun-2024 18:00Moderate Rain30°C4 mph, NE94%10000m1012hPa69%
17-Jun-2024 21:00Moderate Rain28°C2 mph, W100%522m1012hPa81%
18-Jun-2024 00:00Moderate Rain25°C2 mph, W100%10000m1013hPa91%
18-Jun-2024 03:00Light Rain25°C2 mph, SE100%10000m1014hPa89%
18-Jun-2024 06:00Light Rain25°C4 mph, SE100%10000m1012hPa89%
18-Jun-2024 09:00Light Rain25°C4 mph, S99%10000m1012hPa89%
18-Jun-2024 12:00Light Rain27°C4 mph, SE99%10000m1013hPa83%
18-Jun-2024 15:00Overcast Clouds31°C7 mph, E100%10000m1012hPa63%
18-Jun-2024 18:00Moderate Rain31°C9 mph, NE100%10000m1011hPa66%
18-Jun-2024 21:00Moderate Rain29°C9 mph, E100%10000m1011hPa76%
19-Jun-2024 00:00Light Rain27°C9 mph, E66%10000m1012hPa86%
19-Jun-2024 03:00Broken Clouds26°C7 mph, SE65%10000m1013hPa88%
19-Jun-2024 06:00Light Rain26°C4 mph, SE82%10000m1012hPa89%
19-Jun-2024 09:00Light Rain26°C4 mph, SE100%10000m1012hPa87%
19-Jun-2024 12:00Overcast Clouds26°C7 mph, SE100%10000m1014hPa85%
19-Jun-2024 15:00Overcast Clouds28°C4 mph, SE100%10000m1015hPa73%
19-Jun-2024 18:00Overcast Clouds31°C11 mph, E100%10000m1013hPa65%
19-Jun-2024 21:00Moderate Rain29°C11 mph, E99%9103m1013hPa77%
20-Jun-2024 00:00Light Rain27°C9 mph, E100%10000m1014hPa85%
20-Jun-2024 03:00Light Rain26°C11 mph, E100%10000m1015hPa87%
20-Jun-2024 06:00Light Rain26°C9 mph, SE100%10000m1013hPa87%
20-Jun-2024 09:00Overcast Clouds26°C9 mph, E95%10000m1013hPa85%
20-Jun-2024 12:00Overcast Clouds28°C11 mph, E98%10000m1015hPa79%
20-Jun-2024 15:00Light Rain30°C13 mph, E100%10000m1015hPa68%
20-Jun-2024 18:00Light Rain31°C13 mph, E100%10000m1014hPa66%
20-Jun-2024 21:00Overcast Clouds29°C13 mph, E100%10000m1014hPa72%
21-Jun-2024 00:00Light Rain27°C11 mph, E100%10000m1015hPa81%
21-Jun-2024 03:00Light Rain27°C9 mph, E99%10000m1016hPa84%
21-Jun-2024 06:00Light Rain26°C7 mph, SE95%10000m1014hPa86%
21-Jun-2024 09:00Light Rain26°C4 mph, SE90%10000m1014hPa87%
21-Jun-2024 12:00Light Rain28°C7 mph, E95%10000m1016hPa80%
21-Jun-2024 15:00Light Rain30°C11 mph, E99%10000m1016hPa62%
21-Jun-2024 18:00Overcast Clouds30°C11 mph, E99%10000m1015hPa61%
21-Jun-2024 21:00Overcast Clouds29°C11 mph, E100%10000m1014hPa71%
22-Jun-2024 00:00Overcast Clouds27°C7 mph, E100%10000m1015hPa81%
22-Jun-2024 03:00Overcast Clouds27°C7 mph, E100%10000m1016hPa81%